Time;durP1;ratioP1;P1;durP2;ratioP2;P2;SDS_P1;SDS_P2;PMS_P1;PMS_P2;Temp;Humidity;BMP_temperature;BMP_pressure;BME280_temperature;BME280_humidity;BME280_pressure;Samples;Min_cycle;Max_cycle;Signal;HPM_P1;HPM_P2
2022/12/24 00:00:54;;;;;;;;;;;17.00;73.90;;;;;;10167021;28;94332;-61
2022/12/24 00:05:57;;;;;;;;;;;16.90;73.70;;;;;;10167130;28;93912;-61
2022/12/24 00:10:58;;;;;;;;;;;16.90;73.80;;;;;;10167461;28;93233;-61
2022/12/24 00:16:00;;;;;;;;;;;16.90;73.70;;;;;;10165903;28;94577;-60
2022/12/24 00:21:02;;;;;;;;;;;16.90;73.70;;;;;;10168461;28;92980;-60
2022/12/24 00:26:04;;;;;;;;;;;16.90;73.70;;;;;;10167641;28;93648;-61
2022/12/24 00:31:07;;;;;;;;;;;16.90;73.70;;;;;;10166689;28;93127;-61
2022/12/24 00:36:09;;;;;;;;;;;16.80;73.60;;;;;;10163903;28;96980;-61
2022/12/24 00:41:24;;;;;;;;;;;16.80;73.50;;;;;;10166801;28;94602;-61
2022/12/24 00:46:28;;;;;;;;;;;16.80;73.40;;;;;;10167051;28;93560;-60
2022/12/24 00:51:30;;;;;;;;;;;16.80;73.50;;;;;;10166681;28;93689;-61
2022/12/24 00:56:32;;;;;;;;;;;16.80;73.50;;;;;;10165373;28;93434;-61
2022/12/24 01:01:35;;;;;;;;;;;16.80;73.40;;;;;;10167184;28;93642;-62
2022/12/24 01:06:37;;;;;;;;;;;16.70;73.20;;;;;;10166812;28;94428;-62
2022/12/24 01:11:39;;;;;;;;;;;16.70;73.30;;;;;;10166843;28;93225;-62
2022/12/24 01:16:41;;;;;;;;;;;16.70;73.20;;;;;;10174009;28;93346;-62
2022/12/24 01:21:43;;;;;;;;;;;16.70;73.20;;;;;;10173033;28;93419;-62
2022/12/24 01:26:44;;;;;;;;;;;16.70;73.30;;;;;;10170545;28;96098;-62
2022/12/24 01:31:46;;;;;;;;;;;16.70;73.10;;;;;;10172953;28;93419;-61
2022/12/24 01:36:48;;;;;;;;;;;16.70;73.30;;;;;;10172447;28;93561;-62
2022/12/24 01:47:14;;;;;;;;;;;16.70;73.30;;;;;;10171943;28;94485;-61
2022/12/24 01:52:19;;;;;;;;;;;16.80;73.20;;;;;;10171099;28;94081;-62
2022/12/24 01:57:25;;;;;;;;;;;16.80;73.10;;;;;;10171968;28;93688;-62
2022/12/24 02:02:27;;;;;;;;;;;16.80;73.00;;;;;;10563259;22;93098;-64
2022/12/24 02:07:29;;;;;;;;;;;16.80;73.00;;;;;;10190197;28;94392;-67
2022/12/24 02:12:33;;;;;;;;;;;16.80;73.00;;;;;;10211776;28;94180;-65
2022/12/24 02:17:38;;;;;;;;;;;16.70;72.90;;;;;;10204252;28;96761;-65
2022/12/24 02:22:46;;;;;;;;;;;16.70;72.90;;;;;;10168256;28;94546;-65
2022/12/24 02:28:23;;;;;;;;;;;16.70;73.00;;;;;;10193578;28;93881;-65
2022/12/24 02:33:25;;;;;;;;;;;16.70;73.00;;;;;;10137753;28;94032;-66
2022/12/24 02:38:31;;;;;;;;;;;16.70;73.00;;;;;;10179298;28;94511;-65
2022/12/24 02:43:38;;;;;;;;;;;16.70;72.80;;;;;;10202951;28;94467;-64
2022/12/24 02:48:42;;;;;;;;;;;16.60;72.80;;;;;;10182048;28;93329;-64
2022/12/24 02:53:43;;;;;;;;;;;16.60;72.80;;;;;;10171129;28;93565;-64
2022/12/24 02:58:45;;;;;;;;;;;16.60;72.90;;;;;;10168955;28;93378;-65
2022/12/24 03:03:50;;;;;;;;;;;16.60;72.70;;;;;;10168693;28;93552;-64
2022/12/24 03:08:51;;;;;;;;;;;16.60;72.70;;;;;;10167456;28;95854;-65
2022/12/24 03:13:54;;;;;;;;;;;16.60;72.80;;;;;;10169508;28;94785;-65
2022/12/24 03:18:57;;;;;;;;;;;16.60;72.80;;;;;;10170264;28;93531;-65
2022/12/24 03:23:59;;;;;;;;;;;16.50;72.80;;;;;;10169143;28;93454;-65
2022/12/24 03:29:03;;;;;;;;;;;16.50;72.60;;;;;;10169662;28;94522;-65
2022/12/24 03:34:05;;;;;;;;;;;16.50;72.60;;;;;;10168048;28;93434;-65
2022/12/24 03:39:06;;;;;;;;;;;16.60;72.60;;;;;;10168054;28;93692;-64
2022/12/24 03:44:08;;;;;;;;;;;16.50;72.50;;;;;;10168867;28;92750;-65
2022/12/24 03:49:10;;;;;;;;;;;16.50;72.50;;;;;;10168233;28;93482;-65
2022/12/24 03:54:11;;;;;;;;;;;16.50;72.80;;;;;;10167853;28;93572;-63
2022/12/24 03:59:13;;;;;;;;;;;16.60;72.80;;;;;;10148489;28;96116;-65
2022/12/24 04:04:15;;;;;;;;;;;16.60;72.60;;;;;;10167577;28;93473;-64
2022/12/24 04:09:16;;;;;;;;;;;16.60;72.50;;;;;;10168084;28;93484;-65
2022/12/24 04:14:18;;;;;;;;;;;16.60;72.40;;;;;;10167622;28;94651;-65
2022/12/24 04:19:20;;;;;;;;;;;16.60;72.40;;;;;;10167948;28;94242;-64
2022/12/24 04:24:22;;;;;;;;;;;16.60;72.40;;;;;;10167472;28;93723;-65
2022/12/24 04:29:24;;;;;;;;;;;16.60;72.30;;;;;;10167635;28;93533;-64
2022/12/24 04:34:26;;;;;;;;;;;16.60;72.50;;;;;;10168698;28;92901;-65
2022/12/24 04:39:28;;;;;;;;;;;16.60;72.30;;;;;;10166332;28;94500;-65
2022/12/24 04:44:29;;;;;;;;;;;16.50;72.60;;;;;;10167706;28;94648;-64
2022/12/24 06:06:58;;;;;;;;;;;16.50;72.20;;;;;;10167700;28;93434;-63
2022/12/24 06:12:00;;;;;;;;;;;16.50;72.20;;;;;;10171086;28;93447;-64
2022/12/24 06:17:02;;;;;;;;;;;16.60;72.20;;;;;;10170704;28;94581;-63
2022/12/24 06:22:03;;;;;;;;;;;16.60;72.20;;;;;;10170875;28;94657;-63
2022/12/24 06:27:05;;;;;;;;;;;16.80;72.10;;;;;;10170456;28;94474;-63
2022/12/24 06:32:07;;;;;;;;;;;16.90;71.90;;;;;;10171602;28;93053;-63
2022/12/24 06:37:17;;;;;;;;;;;17.00;71.70;;;;;;10171176;28;93235;-64
2022/12/24 06:42:19;;;;;;;;;;;17.20;71.50;;;;;;10169913;28;96033;-64
2022/12/24 06:47:20;;;;;;;;;;;17.40;71.10;;;;;;10167094;28;95867;-64
2022/12/24 06:52:22;;;;;;;;;;;17.60;70.70;;;;;;10169291;28;94605;-64
2022/12/24 06:57:24;;;;;;;;;;;17.60;70.50;;;;;;10170088;28;95029;-64
2022/12/24 07:02:26;;;;;;;;;;;17.70;70.50;;;;;;10168602;28;94132;-64
2022/12/24 07:07:27;;;;;;;;;;;17.70;70.40;;;;;;10168302;28;94516;-64
2022/12/24 07:12:29;;;;;;;;;;;17.60;70.40;;;;;;10200713;28;94362;-63
2022/12/24 07:17:31;;;;;;;;;;;17.60;70.60;;;;;;10208289;28;94455;-64
2022/12/24 07:22:33;;;;;;;;;;;17.50;70.70;;;;;;10210407;28;92702;-64
2022/12/24 07:27:35;;;;;;;;;;;17.50;71.00;;;;;;10208247;28;94184;-63
2022/12/24 07:32:37;;;;;;;;;;;17.50;71.10;;;;;;10223657;28;94369;-64
2022/12/24 07:37:39;;;;;;;;;;;17.40;71.20;;;;;;10206345;28;96846;-64
2022/12/24 07:42:40;;;;;;;;;;;17.40;71.50;;;;;;10206781;28;92608;-64
2022/12/24 07:47:42;;;;;;;;;;;17.30;71.60;;;;;;10208168;28;94505;-64
2022/12/24 07:52:44;;;;;;;;;;;17.30;71.80;;;;;;10208692;28;94534;-63
2022/12/24 07:57:46;;;;;;;;;;;17.20;71.90;;;;;;10208086;28;93489;-64
2022/12/24 08:02:47;;;;;;;;;;;17.20;72.30;;;;;;10206603;28;92970;-64
2022/12/24 08:07:49;;;;;;;;;;;17.20;72.20;;;;;;10208912;28;93206;-64
2022/12/24 08:12:51;;;;;;;;;;;17.20;72.20;;;;;;10191593;28;92663;-64
2022/12/24 08:17:53;;;;;;;;;;;17.20;72.10;;;;;;10205950;28;93070;-64
2022/12/24 08:22:55;;;;;;;;;;;17.20;72.20;;;;;;10209124;28;93934;-64
2022/12/24 08:27:56;;;;;;;;;;;17.20;72.40;;;;;;10212040;28;95925;-65
2022/12/24 08:32:58;;;;;;;;;;;17.20;72.50;;;;;;10213552;28;93574;-65
2022/12/24 08:38:00;;;;;;;;;;;17.30;73.00;;;;;;10215290;28;93245;-65
2022/12/24 08:43:02;;;;;;;;;;;17.40;73.70;;;;;;10214050;28;93694;-66
2022/12/24 08:48:05;;;;;;;;;;;17.40;73.40;;;;;;10212559;28;93552;-66
2022/12/24 08:53:08;;;;;;;;;;;17.50;73.50;;;;;;10228326;28;93552;-65
2022/12/24 08:58:09;;;;;;;;;;;17.40;73.60;;;;;;10214115;28;93728;-65
2022/12/24 09:03:13;;;;;;;;;;;17.50;73.90;;;;;;10214102;28;92507;-66
2022/12/24 09:08:15;;;;;;;;;;;17.50;74.50;;;;;;10213914;28;93649;-66
2022/12/24 09:13:17;;;;;;;;;;;17.60;74.20;;;;;;10213638;28;93043;-66
2022/12/24 09:18:19;;;;;;;;;;;17.60;73.80;;;;;;10211449;28;96837;-65
2022/12/24 09:23:21;;;;;;;;;;;17.50;73.70;;;;;;10213239;28;93588;-65
2022/12/24 09:28:22;;;;;;;;;;;17.50;73.90;;;;;;10212694;28;93516;-65
2022/12/24 09:33:24;;;;;;;;;;;17.50;73.90;;;;;;10213359;28;93335;-65
2022/12/24 09:38:27;;;;;;;;;;;17.40;73.70;;;;;;10207630;28;94439;-64
2022/12/24 09:43:30;;;;;;;;;;;17.40;73.90;;;;;;10176775;28;93475;-65
2022/12/24 09:48:33;;;;;;;;;;;17.40;74.00;;;;;;10188709;28;93511;-65
2022/12/24 09:53:52;;;;;;;;;;;17.40;74.00;;;;;;10173597;28;92642;-65
2022/12/24 09:58:58;;;;;;;;;;;17.40;74.00;;;;;;10172868;28;93548;-63
2022/12/24 10:04:06;;;;;;;;;;;17.40;74.00;;;;;;10170728;28;93238;-64
2022/12/24 10:09:25;;;;;;;;;;;17.40;74.00;;;;;;10169301;28;97205;-65
2022/12/24 10:14:33;;;;;;;;;;;17.40;74.10;;;;;;10169568;28;94503;-65
2022/12/24 10:19:41;;;;;;;;;;;17.40;74.10;;;;;;10171243;28;93733;-65
2022/12/24 10:24:53;;;;;;;;;;;17.50;74.20;;;;;;10170444;28;94254;-65
2022/12/24 10:29:59;;;;;;;;;;;17.50;74.30;;;;;;10170270;28;92625;-65
2022/12/24 10:35:16;;;;;;;;;;;17.50;74.30;;;;;;10169337;28;93295;-66
2022/12/24 10:40:30;;;;;;;;;;;17.50;74.50;;;;;;10171150;28;92879;-66
2022/12/24 10:45:38;;;;;;;;;;;17.50;74.50;;;;;;10171035;28;92949;-67
2022/12/24 10:50:50;;;;;;;;;;;17.60;74.70;;;;;;10184713;28;93474;-67
2022/12/24 10:56:00;;;;;;;;;;;17.60;74.60;;;;;;10170075;28;93224;-67
2022/12/24 11:01:02;;;;;;;;;;;17.60;74.60;;;;;;10167481;28;95885;-67
2022/12/24 11:06:12;;;;;;;;;;;17.60;74.60;;;;;;10168580;28;94838;-66
2022/12/24 11:11:19;;;;;;;;;;;17.60;74.20;;;;;;10168889;28;93323;-66
2022/12/24 11:16:25;;;;;;;;;;;17.50;73.70;;;;;;10180723;28;94477;-67
2022/12/24 11:21:29;;;;;;;;;;;17.50;73.50;;;;;;10165601;28;93522;-68
2022/12/24 11:26:31;;;;;;;;;;;17.50;73.50;;;;;;10167632;28;93450;-68
2022/12/24 11:31:36;;;;;;;;;;;17.40;73.30;;;;;;10169366;28;93395;-66
2022/12/24 11:36:38;;;;;;;;;;;17.50;73.20;;;;;;10170634;28;93734;-68
2022/12/24 11:41:40;;;;;;;;;;;17.50;73.10;;;;;;10168326;28;93677;-66
2022/12/24 11:46:45;;;;;;;;;;;17.50;73.00;;;;;;10168856;28;93550;-67
2022/12/24 11:52:05;;;;;;;;;;;17.40;73.00;;;;;;10180498;28;95860;-67
2022/12/24 11:57:07;;;;;;;;;;;17.40;73.10;;;;;;10168878;28;94787;-67
2022/12/24 12:02:15;;;;;;;;;;;17.30;73.10;;;;;;10168005;28;94545;-67
2022/12/24 12:07:19;;;;;;;;;;;17.30;73.10;;;;;;10168294;28;94532;-67
2022/12/24 12:12:23;;;;;;;;;;;17.30;73.10;;;;;;10168281;28;93493;-67
2022/12/24 12:17:32;;;;;;;;;;;17.30;73.00;;;;;;10167240;28;93242;-67
2022/12/24 12:22:40;;;;;;;;;;;17.30;72.90;;;;;;10166985;28;93618;-68
2022/12/24 12:27:43;;;;;;;;;;;17.20;73.90;;;;;;10169123;28;92918;-68
2022/12/24 12:32:49;;;;;;;;;;;17.20;72.80;;;;;;10167997;28;94775;-67
2022/12/24 12:37:57;;;;;;;;;;;17.20;72.70;;;;;;10166699;28;94389;-68
2022/12/24 12:43:07;;;;;;;;;;;17.20;72.90;;;;;;10164762;28;95964;-67
2022/12/24 12:48:30;;;;;;;;;;;17.10;72.80;;;;;;10167740;28;94533;-67
2022/12/24 12:53:50;;;;;;;;;;;17.10;72.80;;;;;;10167878;28;93496;-67
2022/12/24 12:58:54;;;;;;;;;;;17.10;72.90;;;;;;10181701;28;94538;-68
2022/12/24 13:04:08;;;;;;;;;;;17.10;73.00;;;;;;10167188;28;93549;-68
2022/12/24 13:09:09;;;;;;;;;;;17.00;73.00;;;;;;10169382;28;93575;-67
2022/12/24 13:14:17;;;;;;;;;;;17.00;73.00;;;;;;10173621;28;93482;-68
2022/12/24 13:19:34;;;;;;;;;;;17.00;73.00;;;;;;10173531;28;93146;-67
2022/12/24 13:24:39;;;;;;;;;;;16.90;73.10;;;;;;10173656;28;94647;-67
2022/12/24 13:29:42;;;;;;;;;;;16.90;72.90;;;;;;10187980;28;93246;-67
2022/12/24 13:34:48;;;;;;;;;;;16.90;72.90;;;;;;10170202;28;96086;-67
2022/12/24 13:40:14;;;;;;;;;;;16.90;72.80;;;;;;10187360;28;94380;-67
2022/12/24 13:45:27;;;;;;;;;;;16.90;72.70;;;;;;10167487;28;93328;-67
2022/12/24 13:50:40;;;;;;;;;;;16.90;72.90;;;;;;10172416;28;93034;-68
2022/12/24 13:55:48;;;;;;;;;;;16.90;72.80;;;;;;10173849;28;93186;-67
2022/12/24 14:00:53;;;;;;;;;;;16.80;72.80;;;;;;10186979;28;92695;-68
2022/12/24 14:06:00;;;;;;;;;;;16.80;72.80;;;;;;10171492;28;94579;-66
2022/12/24 14:11:04;;;;;;;;;;;16.80;72.80;;;;;;10173978;28;94112;-67
2022/12/24 14:16:26;;;;;;;;;;;16.70;72.70;;;;;;10172786;28;94317;-67
2022/12/24 14:21:33;;;;;;;;;;;16.70;72.60;;;;;;10171323;28;93051;-67
2022/12/24 14:26:42;;;;;;;;;;;16.70;72.70;;;;;;10169043;28;95943;-67
2022/12/24 14:31:54;;;;;;;;;;;16.70;72.70;;;;;;10170665;28;93141;-67
2022/12/24 14:36:56;;;;;;;;;;;16.70;72.70;;;;;;10170874;28;94650;-66
2022/12/24 14:42:01;;;;;;;;;;;16.70;72.70;;;;;;10186387;28;93458;-67
2022/12/24 14:47:18;;;;;;;;;;;16.70;72.70;;;;;;10170954;28;93750;-67
2022/12/24 14:52:33;;;;;;;;;;;16.70;72.70;;;;;;10170994;28;93433;-67
2022/12/24 14:58:13;;;;;;;;;;;16.70;72.60;;;;;;10169388;28;93905;-67
2022/12/24 15:03:16;;;;;;;;;;;16.70;72.60;;;;;;10170469;28;92780;-67
2022/12/24 15:08:27;;;;;;;;;;;16.60;72.50;;;;;;10170936;28;93441;-67
2022/12/24 15:13:32;;;;;;;;;;;16.70;72.60;;;;;;10170003;28;94268;-68
2022/12/24 15:18:40;;;;;;;;;;;16.60;72.50;;;;;;10166817;28;96343;-67
2022/12/24 15:23:46;;;;;;;;;;;16.60;72.50;;;;;;10169188;28;113339;-68
2022/12/24 15:28:49;;;;;;;;;;;16.60;72.40;;;;;;10170587;28;94003;-67
2022/12/24 15:33:54;;;;;;;;;;;16.60;72.40;;;;;;10170581;28;94449;-67
2022/12/24 15:38:57;;;;;;;;;;;16.60;72.20;;;;;;10169196;28;94157;-68
2022/12/24 15:44:00;;;;;;;;;;;16.60;72.30;;;;;;10169961;28;94495;-67
2022/12/24 15:49:02;;;;;;;;;;;16.60;72.20;;;;;;10169812;28;94840;-68
2022/12/24 15:54:09;;;;;;;;;;;16.50;72.10;;;;;;10168275;28;92403;-67
2022/12/24 15:59:22;;;;;;;;;;;16.50;72.10;;;;;;10169252;28;93741;-67
2022/12/24 16:04:27;;;;;;;;;;;16.50;72.10;;;;;;10168676;28;92971;-67
2022/12/24 16:09:29;;;;;;;;;;;16.50;72.00;;;;;;10165739;28;96467;-68
2022/12/24 16:14:32;;;;;;;;;;;16.50;72.00;;;;;;10167288;28;93229;-67
2022/12/24 16:19:34;;;;;;;;;;;16.50;72.00;;;;;;10167189;28;94533;-67
2022/12/24 16:24:41;;;;;;;;;;;16.50;71.90;;;;;;10182998;28;94752;-67
2022/12/24 16:29:45;;;;;;;;;;;16.50;71.90;;;;;;10168231;28;93397;-67
2022/12/24 16:34:47;;;;;;;;;;;16.50;72.00;;;;;;10150482;28;93992;-67
2022/12/24 16:39:49;;;;;;;;;;;16.50;71.90;;;;;;10165803;28;93354;-67
2022/12/24 16:44:51;;;;;;;;;;;16.50;71.90;;;;;;10172879;28;93567;-68
2022/12/24 16:49:53;;;;;;;;;;;16.50;71.80;;;;;;10175630;28;93588;-67
2022/12/24 16:54:55;;;;;;;;;;;16.40;71.70;;;;;;10174150;28;93349;-67
2022/12/24 16:59:57;;;;;;;;;;;16.40;71.70;;;;;;10171164;28;95714;-68
2022/12/24 17:04:59;;;;;;;;;;;16.40;71.70;;;;;;10172768;28;93553;-67
2022/12/24 17:10:01;;;;;;;;;;;16.40;71.60;;;;;;10157276;28;94051;-68
2022/12/24 17:15:03;;;;;;;;;;;16.40;71.60;;;;;;10174301;28;93832;-68
2022/12/24 17:20:05;;;;;;;;;;;16.40;71.60;;;;;;10188799;28;94623;-68
2022/12/24 17:25:08;;;;;;;;;;;16.40;71.50;;;;;;10173321;28;93596;-67
2022/12/24 17:30:10;;;;;;;;;;;16.40;71.40;;;;;;10173747;28;93487;-67
2022/12/24 17:35:13;;;;;;;;;;;16.40;71.40;;;;;;10173500;28;92389;-67
2022/12/24 17:40:16;;;;;;;;;;;16.40;71.30;;;;;;10173287;28;92481;-67
2022/12/24 17:45:18;;;;;;;;;;;16.40;71.30;;;;;;10173055;28;94454;-67
2022/12/24 17:50:20;;;;;;;;;;;16.30;71.20;;;;;;10185550;28;95946;-68
2022/12/24 17:55:22;;;;;;;;;;;16.30;71.20;;;;;;10186884;28;94159;-67
2022/12/24 18:00:24;;;;;;;;;;;16.30;71.10;;;;;;10173152;28;93049;-66
2022/12/24 18:05:34;;;;;;;;;;;16.30;71.00;;;;;;10172343;28;93484;-68
2022/12/24 18:10:35;;;;;;;;;;;16.30;71.00;;;;;;10173004;28;93530;-67
2022/12/24 18:15:38;;;;;;;;;;;16.30;71.00;;;;;;10171991;28;93275;-67
2022/12/24 18:20:40;;;;;;;;;;;16.30;71.10;;;;;;10172554;28;94345;-67
2022/12/24 18:25:47;;;;;;;;;;;16.30;71.00;;;;;;10172399;28;94170;-67
2022/12/24 18:30:55;;;;;;;;;;;16.30;71.00;;;;;;10185552;28;93500;-67
2022/12/24 18:35:57;;;;;;;;;;;16.30;70.90;;;;;;10171671;28;94584;-67
2022/12/24 18:41:00;;;;;;;;;;;16.30;70.90;;;;;;10182729;28;95918;-67
2022/12/24 18:46:09;;;;;;;;;;;16.30;70.90;;;;;;10154851;28;93541;-68
2022/12/24 18:51:11;;;;;;;;;;;16.30;70.90;;;;;;10170920;28;93502;-67
2022/12/24 18:56:14;;;;;;;;;;;16.30;70.80;;;;;;10170076;28;93304;-68
2022/12/24 19:01:17;;;;;;;;;;;16.30;70.80;;;;;;10170245;28;93349;-66
2022/12/24 19:06:20;;;;;;;;;;;16.30;70.80;;;;;;10169229;28;93515;-66
2022/12/24 19:11:22;;;;;;;;;;;16.20;70.70;;;;;;10171575;28;94465;-67
2022/12/24 19:16:23;;;;;;;;;;;16.20;70.70;;;;;;10171869;28;93574;-64
2022/12/24 19:21:25;;;;;;;;;;;16.20;70.70;;;;;;10171406;28;94676;-66
2022/12/24 19:26:27;;;;;;;;;;;16.20;70.70;;;;;;10170190;28;94292;-66
2022/12/24 19:31:30;;;;;;;;;;;16.20;70.70;;;;;;10181847;28;96741;-67
2022/12/24 19:36:33;;;;;;;;;;;16.20;70.80;;;;;;10169683;28;93153;-66
2022/12/24 19:41:35;;;;;;;;;;;16.30;70.90;;;;;;10170296;28;94577;-66
2022/12/24 19:46:37;;;;;;;;;;;16.60;70.70;;;;;;10169076;28;93514;-66
2022/12/24 19:51:39;;;;;;;;;;;16.80;70.20;;;;;;10168776;28;93001;-67
2022/12/24 19:56:40;;;;;;;;;;;17.10;69.60;;;;;;10168354;28;92562;-67
2022/12/24 20:01:42;;;;;;;;;;;17.30;69.20;;;;;;10169435;28;93112;-66
2022/12/24 20:06:45;;;;;;;;;;;17.40;68.80;;;;;;10183507;28;93085;-67
2022/12/24 20:11:48;;;;;;;;;;;17.50;68.50;;;;;;10168298;28;93321;-67
2022/12/24 20:16:51;;;;;;;;;;;17.60;68.30;;;;;;10167469;28;93529;-67
2022/12/24 20:21:52;;;;;;;;;;;17.60;68.10;;;;;;10171317;28;96191;-67
2022/12/24 20:26:54;;;;;;;;;;;17.70;68.00;;;;;;10175553;28;93467;-67
2022/12/24 20:31:56;;;;;;;;;;;17.60;68.00;;;;;;10175745;28;93559;-67
2022/12/24 20:36:58;;;;;;;;;;;17.60;68.10;;;;;;10172796;28;93441;-66
2022/12/24 20:42:01;;;;;;;;;;;17.60;68.20;;;;;;10173539;28;94325;-66
2022/12/24 20:47:03;;;;;;;;;;;17.60;68.10;;;;;;10187346;28;93424;-65
2022/12/24 20:52:05;;;;;;;;;;;17.70;68.50;;;;;;10171747;28;93900;-66
2022/12/24 20:57:06;;;;;;;;;;;18.00;68.60;;;;;;10173116;28;92570;-67
2022/12/24 21:02:10;;;;;;;;;;;18.00;68.10;;;;;;10171855;28;94565;-65
2022/12/24 21:07:13;;;;;;;;;;;18.00;68.10;;;;;;10171858;28;94532;-66
2022/12/24 21:17:35;;;;;;;;;;;17.90;68.60;;;;;;10171681;28;93700;-66
2022/12/24 21:22:37;;;;;;;;;;;17.80;69.00;;;;;;10172633;28;93290;-66
2022/12/24 21:27:40;;;;;;;;;;;17.70;69.20;;;;;;10170963;28;93699;-66
2022/12/24 21:32:42;;;;;;;;;;;17.60;69.50;;;;;;10170724;28;94469;-66
2022/12/24 21:37:44;;;;;;;;;;;17.50;69.70;;;;;;10171010;28;94057;-67
2022/12/24 21:42:45;;;;;;;;;;;17.50;70.00;;;;;;10171191;28;94641;-65
2022/12/24 21:47:47;;;;;;;;;;;17.40;70.30;;;;;;10172399;28;93717;-65
2022/12/24 21:54:21;;;;;;;;;;;17.30;70.50;;;;;;10173005;28;94699;-65
2022/12/24 21:58:11;;;;;;;;;;;17.30;70.40;;;;;;10171641;28;93477;-67
2022/12/24 22:03:13;;;;;;;;;;;17.10;70.30;;;;;;10168605;28;96875;-66
2022/12/24 22:13:35;;;;;;;;;;;17.10;70.30;;;;;;10170975;28;93556;-65
2022/12/24 22:18:37;;;;;;;;;;;17.00;70.30;;;;;;10170339;28;94454;-66
2022/12/24 22:23:38;;;;;;;;;;;16.90;70.40;;;;;;10185127;28;94512;-66
2022/12/24 22:28:43;;;;;;;;;;;16.90;70.30;;;;;;10169743;28;94547;-66
2022/12/24 22:33:45;;;;;;;;;;;16.80;70.30;;;;;;10170331;28;93607;-66
2022/12/24 22:38:47;;;;;;;;;;;16.80;70.40;;;;;;10171278;28;92327;-66
2022/12/24 22:43:49;;;;;;;;;;;16.80;70.10;;;;;;10169755;28;93386;-66
2022/12/24 22:48:51;;;;;;;;;;;16.70;70.20;;;;;;10169003;28;94169;-66
2022/12/24 22:53:52;;;;;;;;;;;16.70;70.00;;;;;;10166933;28;96859;-66
2022/12/24 22:58:54;;;;;;;;;;;16.60;70.20;;;;;;10169552;28;94276;-66
2022/12/24 23:03:56;;;;;;;;;;;16.60;70.30;;;;;;10167797;28;93403;-66
2022/12/24 23:08:58;;;;;;;;;;;16.60;70.30;;;;;;10168319;28;94657;-66
2022/12/24 23:19:20;;;;;;;;;;;16.50;70.20;;;;;;10168998;28;94479;-66
2022/12/24 23:24:22;;;;;;;;;;;16.50;70.20;;;;;;10167745;28;92895;-65
2022/12/24 23:29:23;;;;;;;;;;;16.50;70.20;;;;;;10168841;28;92742;-66
2022/12/24 23:34:25;;;;;;;;;;;16.40;70.20;;;;;;10168170;28;93614;-67
2022/12/24 23:39:27;;;;;;;;;;;16.40;70.30;;;;;;10167894;28;94146;-66
2022/12/24 23:44:29;;;;;;;;;;;16.40;70.40;;;;;;10165122;28;95955;-66
2022/12/24 23:49:33;;;;;;;;;;;16.40;70.40;;;;;;10181992;28;94191;-66
2022/12/24 23:54:35;;;;;;;;;;;16.40;70.40;;;;;;10181562;28;93552;-66
2022/12/24 23:59:36;;;;;;;;;;;16.40;70.30;;;;;;10167664;28;95184;-66
